Grayling, Alaska
Current Conditions -  °F | °C
As of 11:16 AM on Friday 21 Nov 2014 (Local Time) from PANV Reporting Station
Clear Clear  
Wind Chill:   Ceiling: Unl
Heat Index: 19°   Visibility: 10mi
Dew Point: 10°   Wind: 18mph
Humidity: 68%   Direction: 40°NE
Pressure: 29"   Gusts: 30mph
Location:  62.92°N, 160.07°W
Report Text: PANV 212016Z AUTO 04016G26KT 10SM CLR M07/M12 A2900 RMK AO1
Loading
Personal Weather Stations






























Interactive Weather Map New forecast layout! Learn more

10-Day Weather Forecast

Advertisements
Track Severe Weather on mobile